createdAt,value
2019-03-01T00:00:40.523Z,998.94
2019-03-01T00:01:40.496Z,998.98
2019-03-01T00:02:40.488Z,998.94
2019-03-01T00:03:40.467Z,998.97
2019-03-01T00:04:40.452Z,998.91
2019-03-01T00:05:40.455Z,998.96
2019-03-01T00:06:40.432Z,998.96
2019-03-01T00:07:40.433Z,998.92
2019-03-01T00:08:40.407Z,998.91
2019-03-01T00:09:40.398Z,998.92
2019-03-01T00:10:40.402Z,998.94
2019-03-01T00:11:40.375Z,998.92
2019-03-01T00:12:40.377Z,998.90
2019-03-01T00:13:40.349Z,998.93
2019-03-01T00:14:40.339Z,998.89
2019-03-01T00:15:40.370Z,998.91
2019-03-01T00:16:40.322Z,998.91
2019-03-01T00:17:40.316Z,998.89
2019-03-01T00:18:40.301Z,998.90
2019-03-01T00:19:40.284Z,998.88
2019-03-01T00:20:40.294Z,998.92
2019-03-01T00:21:40.292Z,998.87
2019-03-01T00:22:40.251Z,998.93
2019-03-01T00:23:40.248Z,998.92
2019-03-01T00:24:40.257Z,998.95
2019-03-01T00:25:40.221Z,998.93
2019-03-01T00:26:40.237Z,998.90
2019-03-01T00:27:40.202Z,998.92
2019-03-01T00:28:40.207Z,998.88
2019-03-01T00:29:40.184Z,998.86
2019-03-01T00:30:40.177Z,998.91
2019-03-01T00:31:40.185Z,998.86
2019-03-01T00:32:40.153Z,998.83
2019-03-01T00:33:40.166Z,998.89
2019-03-01T00:34:40.126Z,998.88
2019-03-01T00:35:40.125Z,998.84
2019-03-01T00:36:40.124Z,998.91
2019-03-01T00:37:40.131Z,998.85
2019-03-01T00:38:40.082Z,998.88
2019-03-01T00:39:40.068Z,998.83
2019-03-01T00:40:40.058Z,998.85
2019-03-01T00:41:40.055Z,998.83
2019-03-01T00:42:40.059Z,998.79
2019-03-01T00:43:40.025Z,998.87
2019-03-01T00:44:40.025Z,998.87
2019-03-01T00:45:40.011Z,998.84
2019-03-01T00:46:39.999Z,998.86
2019-03-01T00:47:40.010Z,998.87
2019-03-01T00:48:39.987Z,998.85
2019-03-01T00:49:39.969Z,998.88
2019-03-01T00:50:39.945Z,998.84
2019-03-01T00:51:39.947Z,998.86
2019-03-01T00:52:39.967Z,998.83
2019-03-01T00:53:39.933Z,998.85
2019-03-01T00:54:39.925Z,998.82
2019-03-01T00:55:39.899Z,998.79
2019-03-01T00:56:39.886Z,998.77
2019-03-01T00:57:39.932Z,998.77
2019-03-01T00:58:39.862Z,998.83
2019-03-01T00:59:39.850Z,998.81
2019-03-01T01:00:39.855Z,998.82
2019-03-01T01:01:39.837Z,998.73
2019-03-01T01:02:39.819Z,998.79
2019-03-01T01:03:39.822Z,998.72
2019-03-01T01:04:39.799Z,998.70
2019-03-01T01:05:39.784Z,998.68
2019-03-01T01:06:39.784Z,998.65
2019-03-01T01:07:39.768Z,998.71
2019-03-01T01:08:39.776Z,998.65
2019-03-01T01:09:39.743Z,998.66
2019-03-01T01:10:39.737Z,998.61
2019-03-01T01:11:39.719Z,998.57
2019-03-01T01:12:39.706Z,998.60
2019-03-01T01:13:39.723Z,998.55
2019-03-01T01:14:39.705Z,998.59
2019-03-01T01:15:39.686Z,998.57
2019-03-01T01:16:39.668Z,998.53
2019-03-01T01:17:39.656Z,998.50
2019-03-01T01:18:39.664Z,998.51
2019-03-01T01:19:39.650Z,998.50
2019-03-01T01:20:39.619Z,998.48
2019-03-01T01:21:39.608Z,998.41
2019-03-01T01:22:39.605Z,998.41
2019-03-01T01:23:39.586Z,998.43
2019-03-01T01:24:39.601Z,998.38
2019-03-01T01:25:39.600Z,998.41
2019-03-01T01:26:39.558Z,998.38
2019-03-01T01:27:41.046Z,998.35
2019-03-01T01:28:39.535Z,998.33
2019-03-01T01:29:39.543Z,998.28
2019-03-01T01:30:39.511Z,998.31
2019-03-01T01:31:39.505Z,998.28
2019-03-01T01:32:39.548Z,998.29
2019-03-01T01:33:39.481Z,998.25
2019-03-01T01:34:39.471Z,998.27
2019-03-01T01:35:39.456Z,998.25
2019-03-01T01:36:39.456Z,998.29
2019-03-01T01:37:39.461Z,998.25
2019-03-01T01:38:39.422Z,998.25
2019-03-01T01:39:39.419Z,998.25
2019-03-01T01:40:39.411Z,998.27
2019-03-01T01:41:39.393Z,998.28
2019-03-01T01:42:39.411Z,998.20
2019-03-01T01:43:39.373Z,998.16
2019-03-01T01:44:39.358Z,998.22
2019-03-01T01:45:39.388Z,998.20
2019-03-01T01:46:39.353Z,998.21
2019-03-01T01:47:39.359Z,998.13
2019-03-01T01:48:39.316Z,998.17
2019-03-01T01:49:39.339Z,998.09
2019-03-01T01:50:39.295Z,998.14
2019-03-01T01:51:39.288Z,998.16
2019-03-01T01:52:39.274Z,998.09
2019-03-01T01:53:39.280Z,998.07
2019-03-01T01:54:39.250Z,998.08
2019-03-01T01:55:39.252Z,998.12
2019-03-01T01:56:39.229Z,998.08
2019-03-01T01:57:39.217Z,998.10
2019-03-01T01:58:39.280Z,998.07
2019-03-01T01:59:39.201Z,998.05
2019-03-01T02:00:39.189Z,998.10
2019-03-01T02:01:39.179Z,998.11
2019-03-01T02:02:39.164Z,998.06
2019-03-01T02:03:39.200Z,998.07
2019-03-01T02:04:39.173Z,998.06
2019-03-01T02:05:39.168Z,998.01
2019-03-01T02:06:39.118Z,998.01
2019-03-01T02:07:39.162Z,998.02
2019-03-01T02:08:39.128Z,998.00
2019-03-01T02:09:39.095Z,998.00
2019-03-01T02:10:39.110Z,998.05
2019-03-01T02:11:39.070Z,997.99
2019-03-01T02:12:39.096Z,997.93
2019-03-01T02:13:39.054Z,997.97
2019-03-01T02:14:39.067Z,997.93
2019-03-01T02:15:39.036Z,997.94
2019-03-01T02:16:39.013Z,997.91
2019-03-01T02:17:39.001Z,997.91
2019-03-01T02:18:39.039Z,997.89
2019-03-01T02:19:38.980Z,997.85
2019-03-01T02:20:38.983Z,997.86
2019-03-01T02:21:38.986Z,997.83
2019-03-01T02:22:38.956Z,997.82
2019-03-01T02:23:40.161Z,997.81
2019-03-01T02:24:38.934Z,997.76
2019-03-01T02:25:38.933Z,997.81
2019-03-01T02:26:38.908Z,997.75
2019-03-01T02:27:38.919Z,997.76
2019-03-01T02:28:38.922Z,997.79
2019-03-01T02:29:38.893Z,997.77
2019-03-01T02:30:38.880Z,997.75
2019-03-01T02:31:38.882Z,997.79
2019-03-01T02:32:38.855Z,997.76
2019-03-01T02:33:38.827Z,997.73
2019-03-01T02:34:38.842Z,997.73
2019-03-01T02:35:38.811Z,997.73
2019-03-01T02:36:38.809Z,997.73
2019-03-01T02:37:38.787Z,997.71
2019-03-01T02:38:38.793Z,997.78
2019-03-01T02:39:38.770Z,997.73
2019-03-01T02:40:38.757Z,997.74
2019-03-01T02:41:38.746Z,997.72
2019-03-01T02:42:38.748Z,997.68
2019-03-01T02:43:38.739Z,997.73
2019-03-01T02:44:38.711Z,997.76
2019-03-01T02:45:38.706Z,997.78
2019-03-01T02:46:38.687Z,997.74
2019-03-01T02:47:38.718Z,997.72
2019-03-01T02:48:38.669Z,997.72
2019-03-01T02:49:38.651Z,997.74
2019-03-01T02:50:38.670Z,997.70
2019-03-01T02:51:38.634Z,997.69
2019-03-01T02:52:38.626Z,997.65
2019-03-01T02:53:38.647Z,997.63
2019-03-01T02:54:38.626Z,997.65
2019-03-01T02:55:38.614Z,997.61
2019-03-01T02:56:38.610Z,997.65
2019-03-01T02:57:38.604Z,997.60
2019-03-01T02:58:38.575Z,997.61
2019-03-01T02:59:38.607Z,997.58
2019-03-01T03:00:38.598Z,997.58
2019-03-01T03:01:38.533Z,997.60
2019-03-01T03:02:38.535Z,997.66
2019-03-01T03:03:38.564Z,997.70
2019-03-01T03:04:38.529Z,997.69
2019-03-01T03:05:38.474Z,997.61
2019-03-01T03:06:38.473Z,997.62
2019-03-01T03:07:38.488Z,997.60
2019-03-01T03:08:38.489Z,997.61
2019-03-01T03:09:38.438Z,997.55
2019-03-01T03:10:38.420Z,997.62
2019-03-01T03:11:38.415Z,997.56
2019-03-01T03:12:38.459Z,997.57
2019-03-01T03:13:38.434Z,997.63
2019-03-01T03:14:38.413Z,997.51
2019-03-01T03:15:38.369Z,997.59
2019-03-01T03:16:38.395Z,997.57
2019-03-01T03:17:38.472Z,997.61
2019-03-01T03:18:38.345Z,997.59
2019-03-01T03:19:38.349Z,997.60
2019-03-01T03:20:38.322Z,997.60
2019-03-01T03:21:38.301Z,997.56
2019-03-01T03:22:38.379Z,997.61
2019-03-01T03:23:38.284Z,997.54
2019-03-01T03:24:38.307Z,997.67
2019-03-01T03:25:38.312Z,997.57
2019-03-01T03:26:38.264Z,997.63
2019-03-01T03:27:38.240Z,997.56
2019-03-01T03:28:38.238Z,997.55
2019-03-01T03:29:38.226Z,997.52
2019-03-01T03:30:38.233Z,997.49
2019-03-01T03:31:38.191Z,997.58
2019-03-01T03:32:38.187Z,997.55
2019-03-01T03:33:38.174Z,997.54
2019-03-01T03:34:38.166Z,997.53
2019-03-01T03:35:38.167Z,997.58
2019-03-01T03:36:38.163Z,997.60
2019-03-01T03:37:38.142Z,997.53
2019-03-01T03:38:38.116Z,997.58
2019-03-01T03:39:38.105Z,997.55
2019-03-01T03:40:38.123Z,997.58
2019-03-01T03:41:38.081Z,997.57
2019-03-01T03:42:38.074Z,997.54
2019-03-01T03:43:38.068Z,997.53
2019-03-01T03:44:38.066Z,997.59
2019-03-01T03:45:38.036Z,997.48
2019-03-01T03:46:38.062Z,997.49
2019-03-01T03:47:38.035Z,997.47
2019-03-01T03:48:38.004Z,997.51
2019-03-01T03:49:38.011Z,997.50
2019-03-01T03:50:37.993Z,997.54
2019-03-01T03:51:37.991Z,997.53
2019-03-01T03:52:37.964Z,997.50
2019-03-01T03:53:37.975Z,997.43
2019-03-01T03:54:38.018Z,997.51
2019-03-01T03:55:37.933Z,997.46
2019-03-01T03:56:37.954Z,997.47
2019-03-01T03:57:37.928Z,997.53
2019-03-01T03:58:37.907Z,997.48
2019-03-01T03:59:37.893Z,997.41
2019-03-01T04:00:37.875Z,997.37
2019-03-01T04:01:37.859Z,997.39
2019-03-01T04:02:37.882Z,997.42
2019-03-01T04:03:37.838Z,997.42
2019-03-01T04:04:37.845Z,997.44
2019-03-01T04:05:37.837Z,997.37
2019-03-01T04:06:37.806Z,997.41
2019-03-01T04:07:37.826Z,997.38
2019-03-01T04:08:37.825Z,997.40
2019-03-01T04:09:37.773Z,997.38
2019-03-01T04:10:37.768Z,997.33
2019-03-01T04:11:37.786Z,997.37
2019-03-01T04:12:37.783Z,997.38
2019-03-01T04:13:37.730Z,997.35
2019-03-01T04:14:37.739Z,997.35
2019-03-01T04:15:37.714Z,997.42
2019-03-01T04:16:37.706Z,997.36
2019-03-01T04:17:37.715Z,997.40
2019-03-01T04:18:37.699Z,997.38
2019-03-01T04:19:37.703Z,997.37
2019-03-01T04:20:37.655Z,997.37
2019-03-01T04:21:37.660Z,997.38
2019-03-01T04:22:37.703Z,997.32
2019-03-01T04:23:37.664Z,997.33
2019-03-01T04:24:37.613Z,997.31
2019-03-01T04:25:37.610Z,997.31
2019-03-01T04:26:37.591Z,997.32
2019-03-01T04:27:37.630Z,997.29
2019-03-01T04:28:37.597Z,997.25
2019-03-01T04:29:37.558Z,997.28
2019-03-01T04:30:37.558Z,997.29
2019-03-01T04:31:37.546Z,997.24
2019-03-01T04:32:37.523Z,997.25
2019-03-01T04:33:37.528Z,997.27
2019-03-01T04:34:37.526Z,997.28
2019-03-01T04:35:37.490Z,997.21
2019-03-01T04:36:37.483Z,997.20
2019-03-01T04:37:37.464Z,997.21
2019-03-01T04:38:37.462Z,997.17
2019-03-01T04:39:37.476Z,997.21
2019-03-01T04:40:37.443Z,997.28
2019-03-01T04:41:37.421Z,997.19
2019-03-01T04:42:37.414Z,997.20
2019-03-01T04:43:37.419Z,997.20
2019-03-01T04:44:37.462Z,997.19
2019-03-01T04:45:37.382Z,997.22
2019-03-01T04:46:37.370Z,997.20
2019-03-01T04:47:37.357Z,997.18
2019-03-01T04:48:37.349Z,997.14
2019-03-01T04:49:37.376Z,997.13
2019-03-01T04:50:37.355Z,997.15
2019-03-01T04:51:40.041Z,997.18
2019-03-01T04:52:37.303Z,997.19
2019-03-01T04:53:37.313Z,997.25
2019-03-01T04:54:37.279Z,997.20
2019-03-01T04:55:37.280Z,997.23
2019-03-01T04:56:37.255Z,997.18
2019-03-01T04:57:37.274Z,997.18
2019-03-01T04:58:37.252Z,997.18
2019-03-01T04:59:37.227Z,997.15
2019-03-01T05:00:37.211Z,997.21
2019-03-01T05:01:37.206Z,997.18
2019-03-01T05:02:37.209Z,997.13
2019-03-01T05:03:37.184Z,997.14
2019-03-01T05:04:37.176Z,997.19
2019-03-01T05:05:37.164Z,997.19
2019-03-01T05:06:37.148Z,997.21
2019-03-01T05:07:37.166Z,997.14
2019-03-01T05:08:37.141Z,997.12
2019-03-01T05:09:37.199Z,997.16
2019-03-01T05:10:37.114Z,997.16
2019-03-01T05:11:37.095Z,997.14
2019-03-01T05:12:37.080Z,997.10
2019-03-01T05:13:37.129Z,997.06
2019-03-01T05:14:37.059Z,997.11
2019-03-01T05:15:37.048Z,997.15
2019-03-01T05:16:37.038Z,997.09
2019-03-01T05:17:37.045Z,997.05
2019-03-01T05:18:37.035Z,997.01
2019-03-01T05:19:37.012Z,997.00
2019-03-01T05:20:37.014Z,997.01
2019-03-01T05:21:36.984Z,997.03
2019-03-01T05:22:36.969Z,997.03
2019-03-01T05:23:36.990Z,997.04
2019-03-01T05:24:36.969Z,996.97
2019-03-01T05:25:36.973Z,997.02
2019-03-01T05:26:36.928Z,997.02
2019-03-01T05:27:36.919Z,996.99
2019-03-01T05:28:36.920Z,997.02
2019-03-01T05:29:36.917Z,996.99
2019-03-01T05:30:36.887Z,997.04
2019-03-01T05:31:36.889Z,997.04
2019-03-01T05:32:36.890Z,996.98
2019-03-01T05:33:36.867Z,997.05
2019-03-01T05:34:36.855Z,997.04
2019-03-01T05:35:36.833Z,997.07
2019-03-01T05:36:36.823Z,997.03
2019-03-01T05:37:36.811Z,997.02
2019-03-01T05:38:36.800Z,997.07
2019-03-01T05:39:36.840Z,997.04
2019-03-01T05:40:36.786Z,997.01
2019-03-01T05:41:36.774Z,997.08
2019-03-01T05:42:36.749Z,997.09
2019-03-01T05:43:36.749Z,997.04
2019-03-01T05:44:36.765Z,997.05
2019-03-01T05:45:36.738Z,997.03
2019-03-01T05:46:36.704Z,997.05
2019-03-01T05:47:36.699Z,997.05
2019-03-01T05:48:36.687Z,997.08
2019-03-01T05:49:36.670Z,997.03
2019-03-01T05:50:36.698Z,997.06
2019-03-01T05:51:36.654Z,997.10
2019-03-01T05:52:36.651Z,997.07
2019-03-01T05:53:36.639Z,997.12
2019-03-01T05:54:36.622Z,997.06
2019-03-01T05:55:36.655Z,997.08
2019-03-01T05:56:36.601Z,997.10
2019-03-01T05:57:36.590Z,997.09
2019-03-01T05:58:36.578Z,997.05
2019-03-01T05:59:36.596Z,997.06
2019-03-01T06:00:36.568Z,997.08
2019-03-01T06:01:36.597Z,997.09
2019-03-01T06:02:36.533Z,997.12
2019-03-01T06:03:36.548Z,997.11
2019-03-01T06:04:36.511Z,997.09
2019-03-01T06:05:36.504Z,997.07
2019-03-01T06:06:36.529Z,997.11
2019-03-01T06:07:36.474Z,997.12
2019-03-01T06:08:36.477Z,997.04
2019-03-01T06:09:36.452Z,997.01
2019-03-01T06:10:36.443Z,997.00
2019-03-01T06:11:36.488Z,997.04
2019-03-01T06:12:36.423Z,996.99
2019-03-01T06:13:36.425Z,997.01
2019-03-01T06:14:36.400Z,997.01
2019-03-01T06:15:36.391Z,997.01
2019-03-01T06:16:36.403Z,997.00
2019-03-01T06:17:36.378Z,997.01
2019-03-01T06:18:36.352Z,997.01
2019-03-01T06:19:36.342Z,997.02
2019-03-01T06:20:36.342Z,996.98
2019-03-01T06:21:36.328Z,996.99
2019-03-01T06:22:36.337Z,996.98
2019-03-01T06:23:36.343Z,996.99
2019-03-01T06:24:36.293Z,996.96
2019-03-01T06:25:36.278Z,996.95
2019-03-01T06:26:36.280Z,996.89
2019-03-01T06:27:36.274Z,996.89
2019-03-01T06:28:36.251Z,996.89
2019-03-01T06:29:36.239Z,996.98
2019-03-01T06:30:36.224Z,996.91
2019-03-01T06:31:36.221Z,996.91
2019-03-01T06:32:36.226Z,996.90
2019-03-01T06:33:36.199Z,996.87
2019-03-01T06:34:36.280Z,996.88
2019-03-01T06:35:36.169Z,996.94
2019-03-01T06:36:36.160Z,996.87
2019-03-01T06:37:36.181Z,996.87
2019-03-01T06:38:36.135Z,996.89
2019-03-01T06:39:36.128Z,996.84
2019-03-01T06:40:36.116Z,996.85
2019-03-01T06:41:36.098Z,996.88
2019-03-01T06:42:36.089Z,996.90
2019-03-01T06:43:36.111Z,996.85
2019-03-01T06:44:36.088Z,996.92
2019-03-01T06:45:36.061Z,996.88
2019-03-01T06:46:36.052Z,996.82
2019-03-01T06:47:36.035Z,996.89
2019-03-01T06:48:36.027Z,996.90
2019-03-01T06:49:36.043Z,996.92
2019-03-01T06:50:36.006Z,996.91
2019-03-01T06:51:36.019Z,996.90
2019-03-01T06:52:36.011Z,996.97
2019-03-01T06:53:35.971Z,996.90
2019-03-01T06:54:35.959Z,996.93
2019-03-01T06:55:35.972Z,996.95
2019-03-01T06:56:35.954Z,996.94
2019-03-01T06:57:35.929Z,996.96
2019-03-01T06:58:35.917Z,996.94
2019-03-01T06:59:35.907Z,996.94
2019-03-01T07:00:35.920Z,996.93
2019-03-01T07:01:35.935Z,996.97
2019-03-01T07:02:35.878Z,996.88
2019-03-01T07:03:35.857Z,996.92
2019-03-01T07:04:35.850Z,996.94
2019-03-01T07:05:35.868Z,996.89
2019-03-01T07:06:35.824Z,996.92
2019-03-01T07:07:35.815Z,996.92
2019-03-01T07:08:35.809Z,996.95
2019-03-01T07:09:35.795Z,996.92
2019-03-01T07:10:35.798Z,996.96
2019-03-01T07:11:35.789Z,996.95
2019-03-01T07:12:35.770Z,996.91
2019-03-01T07:13:35.754Z,996.95
2019-03-01T07:14:35.741Z,996.89
2019-03-01T07:15:35.786Z,996.91
2019-03-01T07:16:35.716Z,996.88
2019-03-01T07:17:35.718Z,996.86
2019-03-01T07:18:35.699Z,996.86
2019-03-01T07:19:35.746Z,996.87
2019-03-01T07:20:35.678Z,996.88
2019-03-01T07:21:35.708Z,996.93
2019-03-01T07:22:35.658Z,996.95
2019-03-01T07:23:36.997Z,996.91
2019-03-01T07:24:35.631Z,996.89
2019-03-01T07:25:35.622Z,996.87
2019-03-01T07:26:35.645Z,996.87
2019-03-01T07:27:35.600Z,996.85
2019-03-01T07:28:35.634Z,996.89
2019-03-01T07:29:35.590Z,996.94
2019-03-01T07:30:35.566Z,996.93
2019-03-01T07:31:35.605Z,996.92
2019-03-01T07:32:35.562Z,996.89
2019-03-01T07:33:35.539Z,996.95
2019-03-01T07:34:35.520Z,996.91
2019-03-01T07:35:35.512Z,996.98
2019-03-01T07:36:35.561Z,996.96
2019-03-01T07:37:35.520Z,996.95
2019-03-01T07:38:35.479Z,996.98
2019-03-01T07:39:35.476Z,996.97
2019-03-01T07:40:35.456Z,996.94
2019-03-01T07:41:35.480Z,996.99
2019-03-01T07:42:35.458Z,997.03
2019-03-01T07:43:35.427Z,997.01
2019-03-01T07:44:35.484Z,997.04
2019-03-01T07:45:35.454Z,997.10
2019-03-01T07:46:35.416Z,997.08
2019-03-01T07:47:35.420Z,997.13
2019-03-01T07:48:35.368Z,997.17
2019-03-01T07:49:35.368Z,997.12
2019-03-01T07:50:35.348Z,997.11
2019-03-01T07:51:36.042Z,997.11
2019-03-01T07:52:35.333Z,997.11
2019-03-01T07:53:35.667Z,997.13
2019-03-01T07:54:36.302Z,997.09
2019-03-01T07:55:35.318Z,997.10
2019-03-01T07:56:36.908Z,997.16
2019-03-01T07:57:35.334Z,997.13
2019-03-01T07:58:35.260Z,997.13
2019-03-01T07:59:38.318Z,997.11
2019-03-01T08:00:35.247Z,997.16
2019-03-01T08:01:35.259Z,997.13
2019-03-01T08:02:35.964Z,997.18
2019-03-01T08:03:35.224Z,997.18
2019-03-01T08:04:35.226Z,997.18
2019-03-01T08:05:35.584Z,997.17
2019-03-01T08:06:35.191Z,997.18
2019-03-01T08:07:35.162Z,997.20
2019-03-01T08:08:39.052Z,997.20
2019-03-01T08:09:36.158Z,997.28
2019-03-01T08:10:35.135Z,997.18
2019-03-01T08:11:35.158Z,997.18
2019-03-01T08:12:35.124Z,997.20
2019-03-01T08:13:35.102Z,997.23
2019-03-01T08:14:35.097Z,997.24
2019-03-01T08:15:35.098Z,997.23
2019-03-01T08:16:35.069Z,997.29
2019-03-01T08:17:35.103Z,997.23
2019-03-01T08:18:35.055Z,997.26
2019-03-01T08:19:35.034Z,997.24
2019-03-01T08:20:35.033Z,997.25
2019-03-01T08:21:35.010Z,997.27
2019-03-01T08:22:47.317Z,997.21
2019-03-01T08:23:36.080Z,997.19
2019-03-01T08:24:34.985Z,997.15
2019-03-01T08:25:34.964Z,997.21
2019-03-01T08:26:35.011Z,997.18
2019-03-01T08:27:34.965Z,997.20
2019-03-01T08:28:34.933Z,997.18
2019-03-01T08:29:34.961Z,997.25
2019-03-01T08:30:34.917Z,997.26
2019-03-01T08:31:34.898Z,997.22
2019-03-01T08:32:34.963Z,997.25
2019-03-01T08:33:34.895Z,997.21
2019-03-01T08:34:35.347Z,997.19
2019-03-01T08:35:34.876Z,997.24
2019-03-01T08:36:34.878Z,997.24
2019-03-01T08:37:34.835Z,997.21
2019-03-01T08:38:35.006Z,997.14
2019-03-01T08:39:36.668Z,997.15
2019-03-01T08:40:34.807Z,997.10
2019-03-01T08:41:34.819Z,997.08
2019-03-01T08:42:36.424Z,997.08
2019-03-01T08:43:35.795Z,997.06
2019-03-01T08:44:34.761Z,997.09
2019-03-01T08:45:34.753Z,997.04
2019-03-01T08:46:34.777Z,997.07
2019-03-01T08:47:34.728Z,997.07
2019-03-01T08:48:34.909Z,997.10
2019-03-01T08:49:34.705Z,997.07
2019-03-01T08:50:34.703Z,997.07
2019-03-01T08:51:34.686Z,997.18
2019-03-01T08:52:37.197Z,997.18
2019-03-01T08:53:35.687Z,997.24
2019-03-01T08:54:34.665Z,997.21
2019-03-01T08:55:35.617Z,997.19
2019-03-01T08:56:34.642Z,997.26
2019-03-01T08:57:43.824Z,997.31
2019-03-01T08:58:37.581Z,997.26
2019-03-01T08:59:35.622Z,997.21
2019-03-01T09:00:34.583Z,997.25
2019-03-01T09:01:34.575Z,997.22
2019-03-01T09:02:34.619Z,997.23
2019-03-01T09:03:34.558Z,997.16
2019-03-01T09:04:37.876Z,997.19
2019-03-01T09:05:34.529Z,997.13
2019-03-01T09:06:34.519Z,997.12
2019-03-01T09:07:34.559Z,997.12
2019-03-01T09:08:34.519Z,997.20
2019-03-01T09:09:34.495Z,997.14
2019-03-01T09:10:34.533Z,997.15
2019-03-01T09:11:34.466Z,997.18
2019-03-01T09:12:34.472Z,997.17
2019-03-01T09:13:36.073Z,997.17
2019-03-01T09:14:34.448Z,997.15
2019-03-01T09:15:34.423Z,997.14
2019-03-01T09:16:34.411Z,997.15
2019-03-01T09:17:34.435Z,997.07
2019-03-01T09:18:34.386Z,997.16
2019-03-01T09:19:34.377Z,997.10
2019-03-01T09:20:38.417Z,997.13
2019-03-01T09:21:34.367Z,997.11
2019-03-01T09:22:34.349Z,997.11
2019-03-01T09:23:34.352Z,997.15
2019-03-01T09:24:34.321Z,997.16
2019-03-01T09:25:34.319Z,997.17
2019-03-01T09:26:35.623Z,997.16
2019-03-01T09:27:34.325Z,997.17
2019-03-01T09:28:38.441Z,997.22
2019-03-01T09:29:41.410Z,997.22
2019-03-01T09:30:35.262Z,997.22
2019-03-01T09:31:34.242Z,997.16
2019-03-01T09:32:34.877Z,997.21
2019-03-01T09:33:34.228Z,997.24
2019-03-01T09:34:34.220Z,997.19
2019-03-01T09:35:34.233Z,997.15
2019-03-01T09:36:34.193Z,997.14
2019-03-01T09:37:34.209Z,997.20
2019-03-01T09:38:34.178Z,997.18
2019-03-01T09:39:34.162Z,997.19
2019-03-01T09:40:34.149Z,997.19
2019-03-01T09:41:36.527Z,997.17
2019-03-01T09:42:35.186Z,997.14
2019-03-01T09:43:34.112Z,997.11
2019-03-01T09:44:34.592Z,997.17
2019-03-01T09:45:36.558Z,997.14
2019-03-01T09:46:34.084Z,997.14
2019-03-01T09:47:36.933Z,997.12
2019-03-01T09:48:34.087Z,997.12
2019-03-01T09:49:34.049Z,997.16
2019-03-01T09:50:34.578Z,997.18
2019-03-01T09:51:34.024Z,997.17
2019-03-01T09:52:34.011Z,997.12
2019-03-01T09:53:35.165Z,997.15
2019-03-01T09:54:33.999Z,997.18
2019-03-01T09:55:34.825Z,997.16
2019-03-01T09:56:34.001Z,997.15
2019-03-01T09:57:34.005Z,997.11
2019-03-01T09:58:34.033Z,997.20
2019-03-01T09:59:33.950Z,997.13
2019-03-01T10:00:33.931Z,997.15
2019-03-01T10:01:33.930Z,997.18
2019-03-01T10:02:33.908Z,997.13
2019-03-01T10:03:33.911Z,997.12
2019-03-01T10:04:33.920Z,997.14
2019-03-01T10:05:33.886Z,997.11
2019-03-01T10:06:38.066Z,997.03
2019-03-01T10:07:33.923Z,997.06
2019-03-01T10:08:33.844Z,997.08
2019-03-01T10:09:33.861Z,997.00
2019-03-01T10:10:33.815Z,997.00
2019-03-01T10:11:33.811Z,997.04
2019-03-01T10:12:33.808Z,997.03
2019-03-01T10:14:33.813Z,997.00
2019-03-01T10:15:33.765Z,996.94
2019-03-01T10:16:33.752Z,997.01
2019-03-01T10:17:33.740Z,997.08
2019-03-01T10:18:33.739Z,997.10
2019-03-01T10:19:33.748Z,996.98
2019-03-01T10:20:33.707Z,997.05
2019-03-01T10:21:33.697Z,996.99
2019-03-01T10:22:33.708Z,997.04
2019-03-01T10:23:33.684Z,997.10
2019-03-01T10:24:33.701Z,997.14
2019-03-01T10:25:33.657Z,997.08
2019-03-01T10:26:33.645Z,996.98
2019-03-01T10:27:33.630Z,997.11
2019-03-01T10:28:33.675Z,997.07
2019-03-01T10:29:33.606Z,997.07
2019-03-01T10:30:33.615Z,997.11
2019-03-01T10:31:33.596Z,997.13
2019-03-01T10:32:33.573Z,997.14
2019-03-01T10:33:33.571Z,997.10
2019-03-01T10:34:33.572Z,997.06
2019-03-01T10:35:33.548Z,997.06
2019-03-01T10:36:33.551Z,997.10
2019-03-01T10:37:33.526Z,997.02
2019-03-01T10:38:33.505Z,997.14
2019-03-01T10:39:33.536Z,997.09
2019-03-01T10:40:33.488Z,997.07
2019-03-01T10:41:33.483Z,997.09
2019-03-01T10:42:33.462Z,997.04
2019-03-01T10:43:33.460Z,997.04
2019-03-01T10:44:33.462Z,997.03
2019-03-01T10:45:33.482Z,997.06
2019-03-01T10:46:33.436Z,997.09
2019-03-01T10:47:33.414Z,997.16
2019-03-01T10:48:33.397Z,997.12
2019-03-01T10:49:41.006Z,997.14
2019-03-01T10:50:33.396Z,997.15
2019-03-01T10:51:33.365Z,997.12
2019-03-01T10:52:33.353Z,997.10
2019-03-01T10:53:33.357Z,997.11
2019-03-01T10:54:33.329Z,997.10
2019-03-01T10:55:33.362Z,997.11
2019-03-01T10:56:33.312Z,997.16
2019-03-01T10:57:33.301Z,997.12
2019-03-01T10:58:33.292Z,997.07
2019-03-01T10:59:33.325Z,997.11
2019-03-01T11:00:33.273Z,997.08
2019-03-01T11:01:33.264Z,997.07
2019-03-01T11:02:33.242Z,997.10
2019-03-01T11:03:33.234Z,997.06
2019-03-01T11:04:33.261Z,997.05
2019-03-01T11:05:33.461Z,997.07
2019-03-01T11:06:33.207Z,997.05
2019-03-01T11:07:33.193Z,997.07
2019-03-01T11:08:33.189Z,997.03
2019-03-01T11:09:33.171Z,997.05
2019-03-01T11:10:33.175Z,996.97
2019-03-01T11:11:33.172Z,996.98
2019-03-01T11:12:33.141Z,997.00
2019-03-01T11:13:33.129Z,997.01
2019-03-01T11:14:33.115Z,997.00
2019-03-01T11:15:33.134Z,997.03
2019-03-01T11:16:33.098Z,996.99
2019-03-01T11:17:33.082Z,997.01
2019-03-01T11:18:33.076Z,997.00
2019-03-01T11:19:33.079Z,997.00
2019-03-01T11:20:33.061Z,996.99
2019-03-01T11:21:33.074Z,997.00
2019-03-01T11:22:33.033Z,997.00
2019-03-01T11:23:33.013Z,996.99
2019-03-01T11:24:33.015Z,997.04
2019-03-01T11:25:32.999Z,997.05
2019-03-01T11:26:33.001Z,997.06
2019-03-01T11:27:32.982Z,997.07
2019-03-01T11:28:32.959Z,997.04
2019-03-01T11:29:32.946Z,997.11
2019-03-01T11:30:32.949Z,997.06
2019-03-01T11:31:32.956Z,997.10
2019-03-01T11:32:32.923Z,997.08
2019-03-01T11:33:32.919Z,997.10
2019-03-01T11:34:32.903Z,997.09
2019-03-01T11:35:32.886Z,997.08
2019-03-01T11:36:32.905Z,997.07
2019-03-01T11:37:32.859Z,997.12
2019-03-01T11:38:32.857Z,997.15
2019-03-01T11:39:32.850Z,997.11
2019-03-01T11:40:32.828Z,997.16
2019-03-01T11:41:32.840Z,997.21
2019-03-01T11:42:32.822Z,997.08
2019-03-01T11:43:32.792Z,997.15
2019-03-01T11:44:32.801Z,997.19
2019-03-01T11:45:32.772Z,997.21
2019-03-01T11:46:32.763Z,997.22
2019-03-01T11:47:32.775Z,997.27
2019-03-01T11:48:32.738Z,997.17
2019-03-01T11:49:32.729Z,997.23
2019-03-01T11:50:32.720Z,997.18
2019-03-01T11:51:32.702Z,997.23
2019-03-01T11:52:32.738Z,997.26
2019-03-01T11:53:32.686Z,997.26
2019-03-01T11:54:32.680Z,997.25
2019-03-01T11:55:32.665Z,997.29
2019-03-01T11:56:32.664Z,997.32
2019-03-01T11:57:32.675Z,997.34
2019-03-01T11:58:32.632Z,997.30
2019-03-01T11:59:32.621Z,997.34
2019-03-01T12:00:32.605Z,997.36
2019-03-01T12:01:32.592Z,997.39
2019-03-01T12:02:32.617Z,997.39
2019-03-01T12:03:32.577Z,997.40
2019-03-01T12:04:32.562Z,997.42
2019-03-01T12:05:32.595Z,997.43
2019-03-01T12:06:32.546Z,997.46
2019-03-01T12:07:32.553Z,997.43
2019-03-01T12:08:32.539Z,997.44
2019-03-01T12:09:32.512Z,997.41
2019-03-01T12:10:32.492Z,997.42
2019-03-01T12:11:32.495Z,997.44
2019-03-01T12:12:32.531Z,997.38
2019-03-01T12:13:32.471Z,997.33
2019-03-01T12:14:32.483Z,997.36
2019-03-01T12:15:32.441Z,997.40
2019-03-01T12:16:32.429Z,997.36
2019-03-01T12:17:32.456Z,997.32
2019-03-01T12:18:32.420Z,997.34
2019-03-01T12:19:32.431Z,997.39
2019-03-01T12:20:32.415Z,997.39
2019-03-01T12:21:32.373Z,997.37
2019-03-01T12:22:32.367Z,997.38
2019-03-01T12:23:32.379Z,997.35
2019-03-01T12:24:32.348Z,997.38
2019-03-01T12:25:32.354Z,997.37
2019-03-01T12:26:32.328Z,997.39
2019-03-01T12:27:32.372Z,997.38
2019-03-01T12:28:32.300Z,997.43
2019-03-01T12:29:32.352Z,997.38